sensor_id;sensor_type;location;lat;lon;timestamp;temperature;humidity
40556;DHT22;26250;45.422;11.100;2022-11-14T08:44:52;14.10;97.00
40556;DHT22;26250;45.422;11.100;2022-11-14T08:47:40;14.10;97.10
40556;DHT22;26250;45.422;11.100;2022-11-14T08:50:26;14.20;97.50
40556;DHT22;26250;45.422;11.100;2022-11-14T08:53:11;14.10;97.60
40556;DHT22;26250;45.422;11.100;2022-11-14T08:55:57;14.20;98.00
40556;DHT22;26250;45.422;11.100;2022-11-14T08:58:42;14.20;98.50
40556;DHT22;26250;45.422;11.100;2022-11-14T09:01:27;14.30;99.20
40556;DHT22;26250;45.422;11.100;2022-11-14T09:04:13;14.30;99.50
40556;DHT22;26250;45.422;11.100;2022-11-14T09:06:59;14.30;99.50
40556;DHT22;26250;45.422;11.100;2022-11-14T09:09:44;14.30;98.90
40556;DHT22;26250;45.422;11.100;2022-11-14T09:12:30;14.30;98.80
40556;DHT22;26250;45.422;11.100;2022-11-14T09:15:15;14.30;98.90
40556;DHT22;26250;45.422;11.100;2022-11-14T09:18:02;14.30;98.80
40556;DHT22;26250;45.422;11.100;2022-11-14T09:20:47;14.20;99.00
40556;DHT22;26250;45.422;11.100;2022-11-14T09:23:33;14.30;99.00
40556;DHT22;26250;45.422;11.100;2022-11-14T09:26:21;14.20;98.20
40556;DHT22;26250;45.422;11.100;2022-11-14T09:29:07;14.30;98.30
40556;DHT22;26250;45.422;11.100;2022-11-14T09:31:52;14.30;98.40
40556;DHT22;26250;45.422;11.100;2022-11-14T09:34:39;14.30;97.60
40556;DHT22;26250;45.422;11.100;2022-11-14T09:37:27;14.30;98.00
40556;DHT22;26250;45.422;11.100;2022-11-14T09:40:13;14.40;98.00
40556;DHT22;26250;45.422;11.100;2022-11-14T09:43:04;14.40;97.70
40556;DHT22;26250;45.422;11.100;2022-11-14T09:45:53;14.50;97.70
40556;DHT22;26250;45.422;11.100;2022-11-14T09:48:39;14.50;98.10
40556;DHT22;26250;45.422;11.100;2022-11-14T09:51:32;14.60;98.10
40556;DHT22;26250;45.422;11.100;2022-11-14T09:54:23;14.60;98.10
40556;DHT22;26250;45.422;11.100;2022-11-14T09:57:15;14.60;98.30
40556;DHT22;26250;45.422;11.100;2022-11-14T10:00:01;14.70;97.60
40556;DHT22;26250;45.422;11.100;2022-11-14T10:03:13;14.70;98.10
40556;DHT22;26250;45.422;11.100;2022-11-14T10:15:04;14.90;96.30
40556;DHT22;26250;45.422;11.100;2022-11-14T10:18:43;14.90;96.40
40556;DHT22;26250;45.422;11.100;2022-11-14T10:27:18;15.10;95.40
40556;DHT22;26250;45.422;11.100;2022-11-14T10:30:08;15.20;95.20
40556;DHT22;26250;45.422;11.100;2022-11-14T10:33:15;15.20;95.20
40556;DHT22;26250;45.422;11.100;2022-11-14T10:36:20;15.20;95.40
40556;DHT22;26250;45.422;11.100;2022-11-14T10:39:34;15.30;95.20
40556;DHT22;26250;45.422;11.100;2022-11-14T10:51:05;15.30;93.60
40556;DHT22;26250;45.422;11.100;2022-11-14T10:54:41;15.30;93.70
40556;DHT22;26250;45.422;11.100;2022-11-14T10:57:20;15.30;94.50
40556;DHT22;26250;45.422;11.100;2022-11-14T11:00:17;15.10;95.30
40556;DHT22;26250;45.422;11.100;2022-11-14T11:03:03;15.10;95.50
40556;DHT22;26250;45.422;11.100;2022-11-14T11:05:50;15.20;95.70
40556;DHT22;26250;45.422;11.100;2022-11-14T11:08:43;15.10;94.80
40556;DHT22;26250;45.422;11.100;2022-11-14T11:11:56;15.10;95.20
40556;DHT22;26250;45.422;11.100;2022-11-14T11:14:45;15.10;95.60
40556;DHT22;26250;45.422;11.100;2022-11-14T11:17:31;15.10;95.10
40556;DHT22;26250;45.422;11.100;2022-11-14T11:23:21;15.20;95.10
40556;DHT22;26250;45.422;11.100;2022-11-14T11:26:16;15.10;94.60
40556;DHT22;26250;45.422;11.100;2022-11-14T11:31:58;15.30;95.70
40556;DHT22;26250;45.422;11.100;2022-11-14T11:34:44;15.40;94.70
40556;DHT22;26250;45.422;11.100;2022-11-14T11:37:43;15.40;94.50
40556;DHT22;26250;45.422;11.100;2022-11-14T11:40:29;15.30;94.80
40556;DHT22;26250;45.422;11.100;2022-11-14T11:46:57;15.40;94.90
40556;DHT22;26250;45.422;11.100;2022-11-14T11:49:47;15.40;94.00
40556;DHT22;26250;45.422;11.100;2022-11-14T11:53:00;15.50;94.00
40556;DHT22;26250;45.422;11.100;2022-11-14T11:56:03;15.50;94.00
40556;DHT22;26250;45.422;11.100;2022-11-14T11:58:51;15.50;93.50
40556;DHT22;26250;45.422;11.100;2022-11-14T12:01:38;15.60;92.90
40556;DHT22;26250;45.422;11.100;2022-11-14T12:04:23;15.50;92.80
40556;DHT22;26250;45.422;11.100;2022-11-14T12:07:17;15.60;93.30
40556;DHT22;26250;45.422;11.100;2022-11-14T12:10:12;15.70;92.50
40556;DHT22;26250;45.422;11.100;2022-11-14T12:28:14;15.80;92.20
40556;DHT22;26250;45.422;11.100;2022-11-14T12:31:05;15.80;92.70
40556;DHT22;26250;45.422;11.100;2022-11-14T12:34:01;15.90;92.00
40556;DHT22;26250;45.422;11.100;2022-11-14T12:36:48;15.80;93.00
40556;DHT22;26250;45.422;11.100;2022-11-14T12:39:33;15.90;92.90
40556;DHT22;26250;45.422;11.100;2022-11-14T12:42:20;15.90;92.70
40556;DHT22;26250;45.422;11.100;2022-11-14T12:54:43;16.10;91.20
40556;DHT22;26250;45.422;11.100;2022-11-14T12:57:46;16.10;91.90
40556;DHT22;26250;45.422;11.100;2022-11-14T13:09:40;16.10;90.90
40556;DHT22;26250;45.422;11.100;2022-11-14T13:12:37;16.20;90.80
40556;DHT22;26250;45.422;11.100;2022-11-14T13:15:59;16.10;90.60
40556;DHT22;26250;45.422;11.100;2022-11-14T13:19:22;16.10;91.10
40556;DHT22;26250;45.422;11.100;2022-11-14T13:22:39;16.00;90.70
40556;DHT22;26250;45.422;11.100;2022-11-14T13:25:25;16.00;90.90
40556;DHT22;26250;45.422;11.100;2022-11-14T13:34:31;16.00;91.10
40556;DHT22;26250;45.422;11.100;2022-11-14T13:37:33;16.10;90.90
40556;DHT22;26250;45.422;11.100;2022-11-14T13:47:26;16.00;91.70
40556;DHT22;26250;45.422;11.100;2022-11-14T13:50:13;15.90;91.60
40556;DHT22;26250;45.422;11.100;2022-11-14T13:53:00;15.90;91.40
40556;DHT22;26250;45.422;11.100;2022-11-14T13:55:58;15.90;91.80
40556;DHT22;26250;45.422;11.100;2022-11-14T14:17:26;16.00;92.10
40556;DHT22;26250;45.422;11.100;2022-11-14T14:20:44;16.00;91.80
40556;DHT22;26250;45.422;11.100;2022-11-14T14:32:42;15.90;92.00
40556;DHT22;26250;45.422;11.100;2022-11-14T14:35:30;15.90;92.30
40556;DHT22;26250;45.422;11.100;2022-11-14T14:38:25;15.90;92.50
40556;DHT22;26250;45.422;11.100;2022-11-14T14:41:12;15.90;92.40
40556;DHT22;26250;45.422;11.100;2022-11-14T14:44:00;15.90;92.10
40556;DHT22;26250;45.422;11.100;2022-11-14T14:46:45;15.80;92.10
40556;DHT22;26250;45.422;11.100;2022-11-14T14:49:34;15.70;92.40
40556;DHT22;26250;45.422;11.100;2022-11-14T14:52:30;15.70;92.50
40556;DHT22;26250;45.422;11.100;2022-11-14T14:55:25;15.70;92.50
40556;DHT22;26250;45.422;11.100;2022-11-14T14:58:27;15.60;92.30
40556;DHT22;26250;45.422;11.100;2022-11-14T15:01:16;15.70;92.50
40556;DHT22;26250;45.422;11.100;2022-11-14T15:04:05;15.60;92.30
40556;DHT22;26250;45.422;11.100;2022-11-14T15:06:51;15.50;92.40
40556;DHT22;26250;45.422;11.100;2022-11-14T15:09:56;15.50;92.60
40556;DHT22;26250;45.422;11.100;2022-11-14T15:12:45;15.50;92.60
40556;DHT22;26250;45.422;11.100;2022-11-14T15:15:32;15.40;92.70
40556;DHT22;26250;45.422;11.100;2022-11-14T15:18:29;15.40;93.10
40556;DHT22;26250;45.422;11.100;2022-11-14T15:21:24;15.40;93.30
40556;DHT22;26250;45.422;11.100;2022-11-14T15:24:21;15.40;93.30
40556;DHT22;26250;45.422;11.100;2022-11-14T15:27:15;15.40;93.70
40556;DHT22;26250;45.422;11.100;2022-11-14T15:30:04;15.40;93.50
40556;DHT22;26250;45.422;11.100;2022-11-14T15:32:56;15.40;93.40
40556;DHT22;26250;45.422;11.100;2022-11-14T15:35:42;15.30;92.40
40556;DHT22;26250;45.422;11.100;2022-11-14T15:38:27;15.30;92.40
40556;DHT22;26250;45.422;11.100;2022-11-14T15:41:29;15.20;92.60
40556;DHT22;26250;45.422;11.100;2022-11-14T15:44:32;15.20;92.70
40556;DHT22;26250;45.422;11.100;2022-11-14T15:47:21;15.20;92.40
40556;DHT22;26250;45.422;11.100;2022-11-14T15:53:13;15.20;93.10
40556;DHT22;26250;45.422;11.100;2022-11-14T15:56:00;15.30;93.70
40556;DHT22;26250;45.422;11.100;2022-11-14T15:58:45;15.20;93.60
40556;DHT22;26250;45.422;11.100;2022-11-14T16:01:33;15.20;94.30
40556;DHT22;26250;45.422;11.100;2022-11-14T16:04:20;15.20;93.90
40556;DHT22;26250;45.422;11.100;2022-11-14T16:07:11;15.10;94.40
40556;DHT22;26250;45.422;11.100;2022-11-14T16:09:57;15.00;94.40
40556;DHT22;26250;45.422;11.100;2022-11-14T16:12:42;15.00;94.60
40556;DHT22;26250;45.422;11.100;2022-11-14T16:15:35;14.90;94.60
40556;DHT22;26250;45.422;11.100;2022-11-14T16:18:20;14.90;94.80
40556;DHT22;26250;45.422;11.100;2022-11-14T16:21:12;15.00;96.00
40556;DHT22;26250;45.422;11.100;2022-11-14T16:24:00;14.90;95.00
40556;DHT22;26250;45.422;11.100;2022-11-14T16:26:45;14.90;94.80
40556;DHT22;26250;45.422;11.100;2022-11-14T16:29:32;14.90;94.70
40556;DHT22;26250;45.422;11.100;2022-11-14T16:32:17;14.90;94.90
40556;DHT22;26250;45.422;11.100;2022-11-14T16:35:03;14.90;95.50
40556;DHT22;26250;45.422;11.100;2022-11-14T16:37:49;14.90;95.20
40556;DHT22;26250;45.422;11.100;2022-11-14T16:40:35;14.80;95.20
40556;DHT22;26250;45.422;11.100;2022-11-14T16:43:20;14.80;95.30
40556;DHT22;26250;45.422;11.100;2022-11-14T16:46:06;14.80;95.50
40556;DHT22;26250;45.422;11.100;2022-11-14T16:48:53;14.70;96.00
40556;DHT22;26250;45.422;11.100;2022-11-14T16:51:40;14.70;96.20
40556;DHT22;26250;45.422;11.100;2022-11-14T16:54:35;14.70;97.60
40556;DHT22;26250;45.422;11.100;2022-11-14T16:57:20;14.80;98.50
40556;DHT22;26250;45.422;11.100;2022-11-14T17:00:08;14.70;97.10
40556;DHT22;26250;45.422;11.100;2022-11-14T17:02:55;14.60;96.80
40556;DHT22;26250;45.422;11.100;2022-11-14T17:05:45;14.50;96.70
40556;DHT22;26250;45.422;11.100;2022-11-14T17:08:34;14.40;96.80
40556;DHT22;26250;45.422;11.100;2022-11-14T17:11:20;14.40;97.20
40556;DHT22;26250;45.422;11.100;2022-11-14T17:14:06;14.30;97.30
40556;DHT22;26250;45.422;11.100;2022-11-14T17:16:51;14.30;97.30
40556;DHT22;26250;45.422;11.100;2022-11-14T17:19:36;14.20;97.80
40556;DHT22;26250;45.422;11.100;2022-11-14T17:22:29;14.20;97.80
40556;DHT22;26250;45.422;11.100;2022-11-14T17:25:17;14.10;97.80
40556;DHT22;26250;45.422;11.100;2022-11-14T17:28:03;14.10;97.60
40556;DHT22;26250;45.422;11.100;2022-11-14T17:30:48;14.10;97.60
40556;DHT22;26250;45.422;11.100;2022-11-14T17:33:34;14.00;97.20
40556;DHT22;26250;45.422;11.100;2022-11-14T17:36:20;13.90;97.20
40556;DHT22;26250;45.422;11.100;2022-11-14T17:39:06;13.90;97.30
40556;DHT22;26250;45.422;11.100;2022-11-14T17:41:51;13.70;97.80
40556;DHT22;26250;45.422;11.100;2022-11-14T17:44:37;13.70;98.10
40556;DHT22;26250;45.422;11.100;2022-11-14T17:47:22;13.70;98.00
40556;DHT22;26250;45.422;11.100;2022-11-14T17:50:08;13.60;97.70
40556;DHT22;26250;45.422;11.100;2022-11-14T17:52:53;13.60;97.90
40556;DHT22;26250;45.422;11.100;2022-11-14T17:55:39;13.60;98.10
40556;DHT22;26250;45.422;11.100;2022-11-14T17:58:29;13.60;97.80
40556;DHT22;26250;45.422;11.100;2022-11-14T18:01:18;13.60;97.70
40556;DHT22;26250;45.422;11.100;2022-11-14T18:04:07;13.70;97.80
40556;DHT22;26250;45.422;11.100;2022-11-14T18:06:53;13.50;97.90
40556;DHT22;26250;45.422;11.100;2022-11-14T18:09:39;13.40;98.30
40556;DHT22;26250;45.422;11.100;2022-11-14T18:12:25;13.30;98.50
40556;DHT22;26250;45.422;11.100;2022-11-14T18:15:11;13.30;98.60
40556;DHT22;26250;45.422;11.100;2022-11-14T18:17:58;13.40;98.30
40556;DHT22;26250;45.422;11.100;2022-11-14T18:20:43;13.40;97.80
40556;DHT22;26250;45.422;11.100;2022-11-14T18:23:29;13.40;98.00
40556;DHT22;26250;45.422;11.100;2022-11-14T18:26:15;13.40;98.00
40556;DHT22;26250;45.422;11.100;2022-11-14T18:29:01;13.40;97.80
40556;DHT22;26250;45.422;11.100;2022-11-14T18:31:47;13.40;97.90
40556;DHT22;26250;45.422;11.100;2022-11-14T18:34:33;13.30;98.00
40556;DHT22;26250;45.422;11.100;2022-11-14T18:37:21;13.30;98.80
40556;DHT22;26250;45.422;11.100;2022-11-14T18:40:07;13.20;98.60
40556;DHT22;26250;45.422;11.100;2022-11-14T18:43:00;13.10;99.90
40556;DHT22;26250;45.422;11.100;2022-11-14T18:45:45;13.10;98.20
40556;DHT22;26250;45.422;11.100;2022-11-14T18:48:31;13.00;98.30
40556;DHT22;26250;45.422;11.100;2022-11-14T18:51:19;13.00;98.30
40556;DHT22;26250;45.422;11.100;2022-11-14T18:54:04;13.00;98.80
40556;DHT22;26250;45.422;11.100;2022-11-14T18:56:50;13.10;98.50
40556;DHT22;26250;45.422;11.100;2022-11-14T18:59:35;12.90;98.40
40556;DHT22;26250;45.422;11.100;2022-11-14T19:02:23;12.90;98.30
40556;DHT22;26250;45.422;11.100;2022-11-14T19:05:08;12.90;98.20
40556;DHT22;26250;45.422;11.100;2022-11-14T19:07:54;12.70;98.10
40556;DHT22;26250;45.422;11.100;2022-11-14T19:10:39;12.60;98.40
40556;DHT22;26250;45.422;11.100;2022-11-14T19:13:25;12.60;98.50
40556;DHT22;26250;45.422;11.100;2022-11-14T19:16:10;12.50;98.90
40556;DHT22;26250;45.422;11.100;2022-11-14T19:18:59;12.50;99.00
40556;DHT22;26250;45.422;11.100;2022-11-14T19:21:49;12.50;99.10
40556;DHT22;26250;45.422;11.100;2022-11-14T19:24:34;12.50;99.10
40556;DHT22;26250;45.422;11.100;2022-11-14T19:27:20;12.40;99.10
40556;DHT22;26250;45.422;11.100;2022-11-14T19:30:06;12.40;98.90
40556;DHT22;26250;45.422;11.100;2022-11-14T19:32:51;12.30;99.10
40556;DHT22;26250;45.422;11.100;2022-11-14T19:35:37;12.30;99.30
40556;DHT22;26250;45.422;11.100;2022-11-14T19:38:23;12.30;99.30
40556;DHT22;26250;45.422;11.100;2022-11-14T19:41:14;12.30;99.10
40556;DHT22;26250;45.422;11.100;2022-11-14T19:44:02;12.40;99.50
40556;DHT22;26250;45.422;11.100;2022-11-14T19:46:48;12.50;99.30
40556;DHT22;26250;45.422;11.100;2022-11-14T19:49:33;12.50;99.10
40556;DHT22;26250;45.422;11.100;2022-11-14T19:52:19;12.50;98.70
40556;DHT22;26250;45.422;11.100;2022-11-14T19:55:04;12.30;99.00
40556;DHT22;26250;45.422;11.100;2022-11-14T19:57:50;12.30;98.40
40556;DHT22;26250;45.422;11.100;2022-11-14T20:00:35;12.30;98.40
40556;DHT22;26250;45.422;11.100;2022-11-14T20:03:22;12.30;98.20
40556;DHT22;26250;45.422;11.100;2022-11-14T20:09:05;12.30;98.70
40556;DHT22;26250;45.422;11.100;2022-11-14T20:11:51;12.20;98.80
40556;DHT22;26250;45.422;11.100;2022-11-14T20:14:36;12.20;99.10
40556;DHT22;26250;45.422;11.100;2022-11-14T20:17:22;12.10;98.70
40556;DHT22;26250;45.422;11.100;2022-11-14T20:20:08;12.10;98.60
40556;DHT22;26250;45.422;11.100;2022-11-14T20:22:53;12.00;98.90
40556;DHT22;26250;45.422;11.100;2022-11-14T20:25:41;12.00;99.00
40556;DHT22;26250;45.422;11.100;2022-11-14T20:28:28;11.90;97.70
40556;DHT22;26250;45.422;11.100;2022-11-14T20:31:17;11.80;98.50
40556;DHT22;26250;45.422;11.100;2022-11-14T20:34:03;11.80;98.60
40556;DHT22;26250;45.422;11.100;2022-11-14T20:36:49;11.90;98.60
40556;DHT22;26250;45.422;11.100;2022-11-14T20:39:55;11.90;98.60
40556;DHT22;26250;45.422;11.100;2022-11-14T20:42:46;11.90;98.80
40556;DHT22;26250;45.422;11.100;2022-11-14T20:45:35;12.00;98.50
40556;DHT22;26250;45.422;11.100;2022-11-14T20:48:22;12.00;97.70
40556;DHT22;26250;45.422;11.100;2022-11-14T20:51:14;11.90;97.70
40556;DHT22;26250;45.422;11.100;2022-11-14T20:54:02;11.70;98.40
40556;DHT22;26250;45.422;11.100;2022-11-14T20:56:49;11.60;98.50
40556;DHT22;26250;45.422;11.100;2022-11-14T20:59:35;11.70;98.40
40556;DHT22;26250;45.422;11.100;2022-11-14T21:02:21;11.60;98.20
40556;DHT22;26250;45.422;11.100;2022-11-14T21:05:08;11.60;98.10
40556;DHT22;26250;45.422;11.100;2022-11-14T21:07:55;11.70;98.10
40556;DHT22;26250;45.422;11.100;2022-11-14T21:10:43;11.60;97.60
40556;DHT22;26250;45.422;11.100;2022-11-14T21:13:34;11.40;98.60
40556;DHT22;26250;45.422;11.100;2022-11-14T21:16:39;11.30;99.10
40556;DHT22;26250;45.422;11.100;2022-11-14T21:19:25;11.20;99.80
40556;DHT22;26250;45.422;11.100;2022-11-14T21:22:11;11.30;99.90
40556;DHT22;26250;45.422;11.100;2022-11-14T21:24:57;11.30;99.90
40556;DHT22;26250;45.422;11.100;2022-11-14T21:27:45;11.20;99.90
40556;DHT22;26250;45.422;11.100;2022-11-14T21:30:32;11.30;99.90
40556;DHT22;26250;45.422;11.100;2022-11-14T21:33:17;11.50;99.90
40556;DHT22;26250;45.422;11.100;2022-11-14T21:36:07;11.50;99.90
40556;DHT22;26250;45.422;11.100;2022-11-14T21:39:13;11.60;99.90
40556;DHT22;26250;45.422;11.100;2022-11-14T21:42:00;11.60;99.50
40556;DHT22;26250;45.422;11.100;2022-11-14T21:44:48;11.60;99.00
40556;DHT22;26250;45.422;11.100;2022-11-14T21:47:33;11.50;99.00
40556;DHT22;26250;45.422;11.100;2022-11-14T21:50:18;11.40;98.90
40556;DHT22;26250;45.422;11.100;2022-11-14T21:53:04;11.50;98.80
40556;DHT22;26250;45.422;11.100;2022-11-14T21:58:53;11.30;99.70
40556;DHT22;26250;45.422;11.100;2022-11-14T22:01:57;11.30;99.30
